Cottonwood, Minnesota
Current Conditions -  °F | °C
As of 9:52 AM on Sunday 23 Nov 2014 (Local Time) from KGDB Reporting Station
Drizzle Drizzle  
Wind Chill: 31°   Ceiling: 7500
Heat Index: 37°   Visibility: 7mi
Dew Point: 34°   Wind: 7mph
Humidity: 91%   Direction: 260°W
Pressure: 29.49"   Gusts: NA
Location:  44.61°N, 95.67°W
Report Text: KGDB 231552Z AUTO 26006KT 7SM -DZ SCT060 OVC075 03/01 A2949 RMK AO2 T00250011
Loading
Personal Weather Stations






























Interactive Weather Map New forecast layout! Learn more

10-Day Weather Forecast

Advertisements
Track Severe Weather on mobile